Time;durP1;ratioP1;P1;durP2;ratioP2;P2;SDS_P1;SDS_P2;PMS_P1;PMS_P2;Temp;Humidity;BMP_temperature;BMP_pressure;BME280_temperature;BME280_humidity;BME280_pressure;Samples;Min_cycle;Max_cycle;Signal;HPM_P1;HPM_P2
2023/05/03 00:02:18;;;;;;;5.17;1.47;;;7.40;99.90;;;;;;5019491;28;20181;-69
2023/05/03 00:04:45;;;;;;;3.30;1.40;;;7.30;99.90;;;;;;5037962;28;20097;-69
2023/05/03 00:07:10;;;;;;;6.05;1.65;;;7.30;99.90;;;;;;5036323;28;20040;-69
2023/05/03 00:09:38;;;;;;;3.60;1.93;;;7.30;99.90;;;;;;5023372;28;20036;-69
2023/05/03 00:12:04;;;;;;;3.65;1.67;;;7.30;99.90;;;;;;5021101;28;20052;-69
2023/05/03 00:14:30;;;;;;;5.80;2.25;;;7.30;99.90;;;;;;5008815;28;20049;-69
2023/05/03 00:16:56;;;;;;;6.85;1.75;;;7.30;99.90;;;;;;5057886;22;20106;-84
2023/05/03 00:19:25;;;;;;;5.50;1.57;;;7.20;99.90;;;;;;5031506;28;20124;-82
2023/05/03 00:21:58;;;;;;;3.30;1.88;;;7.30;99.90;;;;;;5024847;28;20051;-82
2023/05/03 00:24:27;;;;;;;6.35;1.77;;;7.30;99.90;;;;;;5008728;28;20044;-83
2023/05/03 00:27:00;;;;;;;2.83;1.63;;;7.40;99.90;;;;;;5021936;28;20424;-84
2023/05/03 00:29:28;;;;;;;4.05;1.38;;;7.30;99.90;;;;;;5021509;28;20512;-84
2023/05/03 00:47:00;;;;;;;4.88;1.50;;;7.40;99.90;;;;;;4938683;22;20064;-75
2023/05/03 00:49:26;;;;;;;2.75;1.25;;;7.40;99.90;;;;;;5018456;28;20040;-73
2023/05/03 00:51:56;;;;;;;4.50;1.40;;;7.40;99.90;;;;;;5039750;28;20053;-74
2023/05/03 00:54:22;;;;;;;4.22;1.70;;;7.40;99.90;;;;;;5024597;28;20048;-73
2023/05/03 00:56:47;;;;;;;6.32;1.83;;;7.40;99.90;;;;;;5042317;28;20135;-73
2023/05/03 00:59:13;;;;;;;3.00;1.50;;;7.40;99.90;;;;;;5040066;28;20406;-74
2023/05/03 01:01:39;;;;;;;2.33;1.60;;;7.40;99.90;;;;;;5041428;28;20354;-76
2023/05/03 01:04:06;;;;;;;2.60;1.50;;;7.40;99.90;;;;;;5022578;28;20518;-73
2023/05/03 01:06:40;;;;;;;3.33;1.60;;;7.40;99.90;;;;;;5037043;28;20071;-73
2023/05/03 01:09:21;;;;;;;3.20;1.13;;;7.50;99.90;;;;;;5046638;28;20398;-73
2023/05/03 01:12:13;;;;;;;4.70;1.20;;;7.40;99.90;;;;;;5038331;28;20049;-74
2023/05/03 01:14:53;;;;;;;5.25;1.45;;;7.50;99.90;;;;;;5038014;28;20041;-73
2023/05/03 01:17:25;;;;;;;4.20;1.60;;;7.50;99.90;;;;;;5039734;28;20047;-74
2023/05/03 01:20:19;;;;;;;2.25;1.20;;;7.50;99.90;;;;;;5037144;28;20041;-74
2023/05/03 01:22:55;;;;;;;2.78;1.52;;;7.50;99.90;;;;;;5032351;28;20052;-73
2023/05/03 01:25:20;;;;;;;2.80;1.63;;;7.50;99.90;;;;;;5041573;28;20116;-74
2023/05/03 01:27:46;;;;;;;3.27;1.63;;;7.60;99.90;;;;;;5043455;28;20437;-75
2023/05/03 01:30:12;;;;;;;5.33;1.43;;;7.60;99.90;;;;;;5041223;28;20651;-74
2023/05/03 01:32:41;;;;;;;4.95;1.63;;;7.60;99.90;;;;;;5024929;28;20287;-74
2023/05/03 01:35:26;;;;;;;6.00;1.92;;;7.60;99.90;;;;;;5043202;28;20430;-74
2023/05/03 01:37:55;;;;;;;2.80;1.50;;;7.60;99.90;;;;;;5035148;28;20037;-73
2023/05/03 01:40:22;;;;;;;6.15;1.77;;;7.60;99.90;;;;;;5037131;28;20049;-73
2023/05/03 01:42:52;;;;;;;3.78;1.80;;;7.60;99.90;;;;;;5038762;28;20521;-74
2023/05/03 01:45:18;;;;;;;4.90;1.80;;;7.60;99.90;;;;;;5038273;28;20388;-73
2023/05/03 01:47:43;;;;;;;4.93;1.55;;;7.60;99.90;;;;;;5042785;28;20036;-73
2023/05/03 01:50:09;;;;;;;4.40;1.57;;;7.60;99.90;;;;;;5039158;28;20490;-76
2023/05/03 01:52:35;;;;;;;3.43;1.63;;;7.70;99.90;;;;;;5035255;28;20048;-75
2023/05/03 01:55:00;;;;;;;4.70;1.43;;;7.60;99.90;;;;;;5022133;28;20041;-74
2023/05/03 01:57:26;;;;;;;3.97;1.63;;;7.60;99.90;;;;;;5032726;28;20045;-75
2023/05/03 01:59:52;;;;;;;2.70;1.70;;;7.60;99.90;;;;;;5034722;28;20048;-73
2023/05/03 02:02:17;;;;;;;3.07;1.60;;;7.60;99.90;;;;;;5028425;28;20045;-74
2023/05/03 02:04:43;;;;;;;7.63;1.83;;;7.60;99.90;;;;;;5035379;28;20419;-73
2023/05/03 02:07:08;;;;;;;6.87;1.77;;;7.60;99.90;;;;;;5035968;28;20116;-73
2023/05/03 02:09:34;;;;;;;5.70;1.80;;;7.60;99.90;;;;;;5036004;28;20041;-73
2023/05/03 02:12:00;;;;;;;4.30;1.90;;;7.60;99.90;;;;;;5034518;28;20037;-74
2023/05/03 02:14:25;;;;;;;4.40;2.03;;;7.60;99.90;;;;;;5031432;28;20109;-76
2023/05/03 02:16:54;;;;;;;6.97;1.67;;;7.60;99.90;;;;;;5036712;28;20086;-72
2023/05/03 02:19:20;;;;;;;4.82;1.75;;;7.60;99.90;;;;;;5035236;28;20045;-75
2023/05/03 02:21:45;;;;;;;4.10;1.45;;;7.60;99.90;;;;;;5022031;28;20171;-72
2023/05/03 02:24:11;;;;;;;2.70;1.50;;;7.60;99.90;;;;;;5034495;28;20305;-72
2023/05/03 02:26:36;;;;;;;3.17;1.87;;;7.60;99.90;;;;;;5038811;28;20041;-72
2023/05/03 02:29:02;;;;;;;6.10;1.70;;;7.60;99.90;;;;;;5035990;28;20090;-74
2023/05/03 02:31:31;;;;;;;6.23;2.33;;;7.70;99.90;;;;;;5034953;28;20041;-74
2023/05/03 02:33:57;;;;;;;3.58;1.63;;;7.60;99.90;;;;;;5037537;28;20048;-72
2023/05/03 02:36:22;;;;;;;2.93;1.90;;;7.60;99.90;;;;;;5036387;28;20395;-73
2023/05/03 02:38:48;;;;;;;3.00;1.70;;;7.60;99.90;;;;;;5034735;28;20056;-74
2023/05/03 02:41:13;;;;;;;3.50;1.40;;;7.60;99.90;;;;;;5027825;28;20352;-72
2023/05/03 02:43:39;;;;;;;4.23;1.63;;;7.70;99.90;;;;;;5031576;28;20077;-73
2023/05/03 02:46:05;;;;;;;3.90;1.50;;;7.60;99.90;;;;;;5016056;28;20037;-73
2023/05/03 02:48:30;;;;;;;5.53;1.77;;;7.70;99.90;;;;;;5035942;28;20516;-74
2023/05/03 02:50:56;;;;;;;2.33;1.57;;;7.60;99.90;;;;;;5020439;28;20041;-74
2023/05/03 02:53:21;;;;;;;6.40;1.60;;;7.70;99.90;;;;;;5027221;28;20041;-72
2023/05/03 02:55:50;;;;;;;6.70;2.03;;;7.70;99.90;;;;;;5061286;28;20447;-72
2023/05/03 02:58:15;;;;;;;3.72;1.80;;;7.70;99.90;;;;;;5016768;28;20049;-74
2023/05/03 03:00:41;;;;;;;6.43;1.40;;;7.70;99.90;;;;;;5037071;28;20041;-73
2023/05/03 03:03:09;;;;;;;3.13;1.70;;;7.70;99.90;;;;;;5030540;28;20345;-73
2023/05/03 03:05:35;;;;;;;4.05;1.42;;;7.70;99.90;;;;;;5045744;28;20041;-77
2023/05/03 03:08:00;;;;;;;3.43;1.80;;;7.70;99.90;;;;;;5048721;28;20061;-73
2023/05/03 03:10:26;;;;;;;3.40;1.50;;;7.60;99.90;;;;;;5038861;28;20060;-72
2023/05/03 03:12:51;;;;;;;2.47;1.70;;;7.70;99.90;;;;;;5041251;28;20259;-73
2023/05/03 03:15:20;;;;;;;7.40;1.80;;;7.60;99.90;;;;;;5043005;28;20095;-75
2023/05/03 03:17:45;;;;;;;3.17;1.48;;;7.60;99.90;;;;;;5035580;28;20043;-72
2023/05/03 03:20:11;;;;;;;5.83;1.80;;;7.60;99.90;;;;;;5036876;28;20482;-73
2023/05/03 03:22:40;;;;;;;4.05;2.22;;;7.50;99.90;;;;;;5038620;28;20494;-74
2023/05/03 03:25:07;;;;;;;6.57;1.52;;;7.50;99.90;;;;;;5042720;28;20461;-72
2023/05/03 03:27:32;;;;;;;;;;;7.40;99.90;;;;;;5025321;28;20044;-73
2023/05/03 03:29:58;;;;;;;3.15;1.40;;;7.40;99.90;;;;;;5041944;28;20019;-71
2023/05/03 03:32:27;;;;;;;4.72;1.40;;;7.40;99.90;;;;;;5044533;28;20112;-72
2023/05/03 03:34:52;;;;;;;3.80;1.77;;;7.40;99.90;;;;;;5045629;28;20152;-72
2023/05/03 03:37:20;;;;;;;4.90;1.97;;;7.30;99.90;;;;;;5047836;28;20040;-72
2023/05/03 03:39:46;;;;;;;2.58;1.80;;;7.30;99.90;;;;;;5045672;28;20052;-71
2023/05/03 03:42:12;;;;;;;2.40;1.50;;;7.30;99.90;;;;;;5042172;28;20037;-74
2023/05/03 03:44:38;;;;;;;5.45;1.48;;;7.30;99.90;;;;;;5051183;28;20129;-72
2023/05/03 03:47:04;;;;;;;2.80;1.70;;;7.20;99.90;;;;;;5042593;28;20135;-73
2023/05/03 03:49:29;;;;;;;2.33;1.67;;;7.20;99.90;;;;;;5047897;28;20041;-72
2023/05/03 03:51:55;;;;;;;5.20;1.60;;;7.20;99.90;;;;;;5040428;28;20124;-73
2023/05/03 03:54:20;;;;;;;5.80;1.70;;;7.20;99.90;;;;;;5042340;28;20462;-73
2023/05/03 03:56:46;;;;;;;2.87;1.83;;;7.20;99.90;;;;;;5046431;28;20133;-73
2023/05/03 03:59:12;;;;;;;2.53;1.47;;;7.20;99.90;;;;;;5053012;28;20068;-72
2023/05/03 04:01:37;;;;;;;3.72;1.65;;;7.10;99.90;;;;;;5039475;28;20041;-72
2023/05/03 04:04:03;;;;;;;6.30;2.30;;;7.20;99.90;;;;;;5029199;28;20467;-73
2023/05/03 04:06:30;;;;;;;3.08;1.95;;;7.10;99.90;;;;;;5049053;28;20127;-72
2023/05/03 04:08:55;;;;;;;5.70;2.13;;;7.10;99.90;;;;;;5047932;28;20371;-74
2023/05/03 04:11:21;;;;;;;4.97;2.23;;;7.10;99.90;;;;;;5038827;28;20047;-72
2023/05/03 04:13:46;;;;;;;4.50;2.17;;;7.20;99.90;;;;;;5032019;28;20519;-72
2023/05/03 04:16:12;;;;;;;2.97;1.50;;;7.20;99.90;;;;;;5042414;28;20029;-73
2023/05/03 04:18:38;;;;;;;2.80;1.40;;;7.20;99.90;;;;;;5045306;28;20044;-73
2023/05/03 04:21:03;;;;;;;4.87;1.63;;;7.20;99.90;;;;;;5041842;28;20581;-72
2023/05/03 04:23:30;;;;;;;8.40;2.72;;;7.20;99.90;;;;;;5046970;28;20052;-73
2023/05/03 04:25:56;;;;;;;3.47;1.80;;;7.20;99.90;;;;;;5043698;28;20484;-74
2023/05/03 04:28:23;;;;;;;2.33;1.50;;;7.20;99.90;;;;;;5048855;28;20595;-72
2023/05/03 04:30:49;;;;;;;7.40;1.90;;;7.20;99.90;;;;;;5048344;28;20055;-73
2023/05/03 04:33:15;;;;;;;5.57;2.10;;;7.20;99.90;;;;;;5043650;28;20037;-74
2023/05/03 04:35:41;;;;;;;4.38;1.77;;;7.10;99.90;;;;;;5038642;28;20072;-73
2023/05/03 04:38:08;;;;;;;3.60;1.90;;;7.10;99.90;;;;;;5025207;28;20045;-73
2023/05/03 04:40:34;;;;;;;6.35;1.70;;;7.20;99.90;;;;;;5038246;28;20068;-72
2023/05/03 04:43:02;;;;;;;3.13;1.55;;;7.20;99.90;;;;;;5043196;28;20545;-72
2023/05/03 04:45:29;;;;;;;5.65;2.38;;;7.20;99.90;;;;;;5045014;28;20511;-71
2023/05/03 04:47:54;;;;;;;4.60;1.93;;;7.20;99.90;;;;;;5043838;28;20140;-72
2023/05/03 04:50:20;;;;;;;3.27;1.53;;;7.20;99.90;;;;;;5043368;28;20044;-72
2023/05/03 04:52:46;;;;;;;4.97;2.00;;;7.20;99.90;;;;;;5046520;28;20067;-72
2023/05/03 04:55:12;;;;;;;4.00;1.90;;;7.20;99.90;;;;;;5041110;28;20048;-72
2023/05/03 04:57:38;;;;;;;3.78;1.77;;;7.30;99.90;;;;;;5043162;28;20045;-73
2023/05/03 05:00:10;;;;;;;3.80;1.70;;;7.30;99.90;;;;;;5048341;28;20471;-73
2023/05/03 05:02:36;;;;;;;5.72;1.90;;;7.30;99.90;;;;;;5039459;28;20041;-73
2023/05/03 05:05:02;;;;;;;5.07;1.83;;;7.30;99.90;;;;;;5036987;28;20068;-73
2023/05/03 05:07:28;;;;;;;4.97;2.05;;;7.30;99.90;;;;;;5028062;28;20462;-72
2023/05/03 05:09:54;;;;;;;5.70;1.80;;;7.40;99.90;;;;;;5043236;28;20404;-72
2023/05/03 05:12:20;;;;;;;3.55;1.90;;;7.40;99.90;;;;;;5037658;28;20123;-73
2023/05/03 05:14:45;;;;;;;3.40;1.57;;;7.50;99.90;;;;;;5023758;28;20055;-72
2023/05/03 05:17:11;;;;;;;2.70;1.67;;;7.50;99.90;;;;;;5042062;28;20455;-72
2023/05/03 05:19:37;;;;;;;4.43;1.70;;;7.50;99.90;;;;;;5041796;28;20120;-72
2023/05/03 05:22:02;;;;;;;2.07;1.70;;;7.60;99.90;;;;;;5042765;28;20515;-74
2023/05/03 05:24:28;;;;;;;3.10;1.63;;;7.60;99.90;;;;;;5042537;28;20045;-72
2023/05/03 05:26:56;;;;;;;3.20;1.53;;;7.60;99.90;;;;;;5045510;28;20051;-72
2023/05/03 05:29:22;;;;;;;3.95;1.40;;;7.70;99.90;;;;;;5048801;28;20037;-70
2023/05/03 05:31:47;;;;;;;5.97;1.50;;;7.70;99.90;;;;;;5043031;28;20403;-73
2023/05/03 05:34:13;;;;;;;4.03;0.97;;;7.70;99.90;;;;;;5043526;28;20041;-72
2023/05/03 05:36:39;;;;;;;2.20;1.13;;;7.80;99.90;;;;;;5038164;28;20043;-72
2023/05/03 05:39:04;;;;;;;6.73;1.13;;;7.80;99.90;;;;;;5042464;28;20057;-73
2023/05/03 05:41:30;;;;;;;2.83;0.83;;;7.90;99.90;;;;;;5039487;28;20052;-72
2023/05/03 05:43:57;;;;;;;3.47;0.90;;;8.00;99.90;;;;;;5037385;28;20037;-71
2023/05/03 05:46:23;;;;;;;3.13;1.15;;;8.00;99.90;;;;;;5037794;28;20470;-72
2023/05/03 05:48:50;;;;;;;4.03;1.30;;;8.00;99.90;;;;;;5039932;28;20165;-74
2023/05/03 05:51:16;;;;;;;3.65;1.10;;;8.10;99.90;;;;;;5021481;28;20396;-72
2023/05/03 05:53:42;;;;;;;2.83;0.85;;;8.10;99.90;;;;;;5041229;28;20037;-74
2023/05/03 05:56:10;;;;;;;4.35;0.98;;;8.10;99.90;;;;;;5036668;28;20585;-74
2023/05/03 05:58:37;;;;;;;2.97;1.30;;;8.20;99.90;;;;;;5034771;28;20237;-72
2023/05/03 06:01:03;;;;;;;;;;;8.20;99.90;;;;;;5042518;28;20406;-73
2023/05/03 06:03:30;;;;;;;2.00;1.15;;;8.20;99.90;;;;;;5041949;28;20384;-75
2023/05/03 06:05:56;;;;;;;2.00;1.00;;;8.30;99.90;;;;;;5046788;28;20067;-72
2023/05/03 06:08:22;;;;;;;3.70;1.27;;;8.30;99.90;;;;;;5045262;28;20044;-73
2023/05/03 06:10:51;;;;;;;2.83;0.90;;;8.40;99.90;;;;;;5045026;28;20048;-74
2023/05/03 06:13:17;;;;;;;2.67;0.95;;;8.40;99.90;;;;;;5044445;28;20036;-74
2023/05/03 06:15:43;;;;;;;3.77;0.90;;;8.40;99.90;;;;;;5046557;28;20050;-73
2023/05/03 06:18:11;;;;;;;4.13;0.70;;;8.50;99.90;;;;;;5013598;22;20459;-70
2023/05/03 06:20:37;;;;;;;2.30;0.82;;;8.50;99.90;;;;;;5003162;28;20125;-74
2023/05/03 06:23:02;;;;;;;2.93;0.80;;;8.60;99.90;;;;;;5009140;28;20132;-68
2023/05/03 06:25:28;;;;;;;1.67;0.80;;;8.60;99.90;;;;;;4997154;28;20033;-68
2023/05/03 06:27:54;;;;;;;2.97;0.83;;;8.70;99.90;;;;;;5023327;28;20522;-68
2023/05/03 06:30:19;;;;;;;2.83;0.60;;;8.80;99.90;;;;;;4998458;28;20644;-68
2023/05/03 06:32:47;;;;;;;1.73;0.80;;;8.80;99.90;;;;;;5003280;28;20295;-68
2023/05/03 06:35:13;;;;;;;3.25;0.80;;;8.80;99.90;;;;;;5007614;28;20073;-68
2023/05/03 06:37:42;;;;;;;3.43;1.40;;;8.90;99.90;;;;;;5004203;28;20087;-68
2023/05/03 06:40:08;;;;;;;4.30;0.70;;;8.90;99.90;;;;;;4987551;28;20137;-68
2023/05/03 06:42:34;;;;;;;5.00;0.60;;;9.00;99.90;;;;;;5012193;28;20166;-68
2023/05/03 06:45:00;;;;;;;3.60;0.60;;;9.10;99.90;;;;;;5026651;28;20307;-69
2023/05/03 06:47:28;;;;;;;4.68;0.73;;;9.10;99.90;;;;;;5029919;28;20025;-69
2023/05/03 06:49:53;;;;;;;3.17;0.60;;;9.20;99.90;;;;;;5005637;28;20501;-69
2023/05/03 06:52:19;;;;;;;1.48;0.60;;;9.30;99.90;;;;;;5008403;28;20037;-68
2023/05/03 06:54:45;;;;;;;1.43;0.60;;;9.30;99.90;;;;;;5001998;28;20124;-69
2023/05/03 06:57:11;;;;;;;1.00;0.50;;;9.30;99.90;;;;;;5007526;28;20441;-68
2023/05/03 06:59:36;;;;;;;3.17;0.90;;;9.40;99.90;;;;;;4998454;28;20042;-68
2023/05/03 07:02:02;;;;;;;2.30;0.87;;;9.40;99.90;;;;;;5010117;28;20363;-69
2023/05/03 07:04:29;;;;;;;1.00;0.43;;;9.50;99.90;;;;;;4999474;28;20715;-68
2023/05/03 07:06:54;;;;;;;4.43;0.70;;;9.50;99.90;;;;;;5005761;28;20406;-68
2023/05/03 07:09:20;;;;;;;1.60;0.77;;;9.50;99.90;;;;;;5008064;28;20073;-68
2023/05/03 07:11:49;;;;;;;3.33;0.57;;;9.50;99.90;;;;;;5012281;28;20037;-68
2023/05/03 07:14:15;;;;;;;7.80;0.80;;;9.60;99.90;;;;;;5014079;28;20049;-69
2023/05/03 07:16:41;;;;;;;2.00;0.80;;;9.60;99.90;;;;;;5015910;28;20069;-69
2023/05/03 07:19:07;;;;;;;4.15;0.80;;;9.70;99.90;;;;;;5004688;28;20087;-69
2023/05/03 07:21:33;;;;;;;2.85;0.73;;;9.70;99.90;;;;;;5014348;28;20055;-68
2023/05/03 07:23:59;;;;;;;2.33;0.82;;;9.80;99.90;;;;;;5009851;28;20265;-69
2023/05/03 07:26:25;;;;;;;;;;;9.80;99.90;;;;;;5009605;28;20043;-68
2023/05/03 07:28:51;;;;;;;0.70;0.50;;;9.90;99.90;;;;;;5020816;28;20447;-68
2023/05/03 07:31:17;;;;;;;2.47;0.57;;;9.90;99.90;;;;;;5021624;28;20038;-68
2023/05/03 07:33:43;;;;;;;2.63;1.02;;;10.00;99.90;;;;;;5011827;28;20045;-69
2023/05/03 07:36:09;;;;;;;2.13;0.90;;;9.90;99.90;;;;;;5009054;28;20061;-68
2023/05/03 07:38:34;;;;;;;2.87;0.90;;;10.00;99.90;;;;;;5004745;28;20040;-68
2023/05/03 07:41:00;;;;;;;3.80;1.17;;;10.10;99.90;;;;;;4998949;28;20046;-68
2023/05/03 07:43:26;;;;;;;5.30;1.03;;;10.10;99.90;;;;;;5005400;28;20095;-69
2023/05/03 07:45:51;;;;;;;3.10;0.80;;;10.20;99.90;;;;;;5022337;28;20056;-68
2023/05/03 07:48:17;;;;;;;2.57;0.77;;;10.20;99.90;;;;;;5032697;28;20037;-69
2023/05/03 07:50:43;;;;;;;3.63;0.80;;;10.20;99.90;;;;;;5023399;28;20073;-68
2023/05/03 07:53:10;;;;;;;3.90;1.10;;;10.30;99.90;;;;;;5025408;28;20045;-68
2023/05/03 07:55:36;;;;;;;;;;;10.30;99.90;;;;;;5014218;28;20147;-68
2023/05/03 07:58:14;;;;;;;3.33;1.00;;;10.30;99.90;;;;;;5009224;28;19916;-68
2023/05/03 08:00:43;;;;;;;2.28;1.02;;;10.30;99.90;;;;;;5013513;28;20116;-69
2023/05/03 08:03:08;;;;;;;4.50;0.70;;;10.40;99.90;;;;;;5008093;28;20167;-68
2023/05/03 08:05:35;;;;;;;4.07;0.83;;;10.30;99.90;;;;;;5015222;28;20510;-68
2023/05/03 08:08:02;;;;;;;3.95;0.65;;;10.30;99.90;;;;;;5010788;28;20048;-69
2023/05/03 08:10:28;;;;;;;5.50;1.50;;;10.30;99.90;;;;;;5015026;28;20076;-68
2023/05/03 08:12:54;;;;;;;2.10;0.77;;;10.30;99.90;;;;;;5018495;28;20315;-68
2023/05/03 08:15:19;;;;;;;0.70;0.47;;;10.40;99.90;;;;;;5012608;28;20398;-68
2023/05/03 08:17:45;;;;;;;1.27;0.60;;;10.40;99.90;;;;;;5025301;28;20045;-68
2023/05/03 08:20:12;;;;;;;3.97;0.60;;;10.40;99.90;;;;;;5008134;28;20403;-68
2023/05/03 08:22:40;;;;;;;6.53;0.63;;;10.40;99.90;;;;;;5010969;28;20449;-68
2023/05/03 08:25:06;;;;;;;2.10;1.00;;;10.40;99.90;;;;;;5004544;28;20065;-69
2023/05/03 08:27:32;;;;;;;0.85;0.55;;;10.40;99.90;;;;;;5011629;28;20172;-68
2023/05/03 08:30:00;;;;;;;2.33;1.08;;;10.40;99.90;;;;;;5022467;28;20068;-68
2023/05/03 08:32:27;;;;;;;1.08;0.60;;;10.40;99.90;;;;;;5003580;28;20043;-68
2023/05/03 08:34:53;;;;;;;2.30;0.70;;;10.40;99.90;;;;;;5005707;28;20511;-68
2023/05/03 08:37:19;;;;;;;1.40;0.52;;;10.40;99.90;;;;;;5008852;28;20141;-68
2023/05/03 08:39:46;;;;;;;5.05;0.77;;;10.50;99.90;;;;;;4998752;28;20115;-68
2023/05/03 08:42:11;;;;;;;;;;;10.50;99.90;;;;;;4998735;28;20121;-69
2023/05/03 08:44:46;;;;;;;4.30;0.60;;;10.50;99.90;;;;;;4996716;28;20013;-68
2023/05/03 08:47:15;;;;;;;3.80;1.38;;;10.50;99.90;;;;;;5014562;28;20041;-68
2023/05/03 08:49:42;;;;;;;1.75;0.85;;;10.50;99.90;;;;;;4990973;28;20104;-68
2023/05/03 08:52:10;;;;;;;1.88;0.77;;;10.70;99.90;;;;;;4998334;28;20095;-69
2023/05/03 08:54:36;;;;;;;2.63;0.70;;;10.70;99.90;;;;;;5012853;28;20068;-69
2023/05/03 08:57:01;;;;;;;5.47;0.90;;;10.70;99.90;;;;;;5008001;28;20061;-68
2023/05/03 08:59:28;;;;;;;3.07;0.70;;;10.70;99.90;;;;;;5000600;28;20041;-69
2023/05/03 09:01:54;;;;;;;1.65;0.60;;;10.70;99.90;;;;;;5003075;28;20116;-69
2023/05/03 09:04:30;;;;;;;1.30;0.82;;;10.70;99.90;;;;;;5002009;28;20088;-69
2023/05/03 09:07:16;;;;;;;2.22;0.75;;;10.80;99.90;;;;;;5000820;28;20145;-68
2023/05/03 09:09:42;;;;;;;2.72;0.70;;;10.80;99.90;;;;;;5012340;28;20136;-69
2023/05/03 09:12:08;;;;;;;2.10;0.85;;;10.80;99.90;;;;;;5013926;28;20112;-69
2023/05/03 09:14:46;;;;;;;1.90;0.52;;;10.70;99.90;;;;;;5019739;28;20136;-69
2023/05/03 09:17:16;;;;;;;2.13;0.77;;;10.80;99.90;;;;;;5000362;28;20055;-69
2023/05/03 09:19:50;;;;;;;2.47;0.80;;;10.80;99.90;;;;;;5006009;28;20459;-69
2023/05/03 09:22:16;;;;;;;2.95;0.75;;;10.80;99.90;;;;;;4997933;28;20045;-69
2023/05/03 09:24:51;;;;;;;4.53;1.05;;;10.80;99.90;;;;;;5004498;28;20060;-69
2023/05/03 09:27:20;;;;;;;4.93;0.80;;;10.90;99.90;;;;;;4998697;28;20037;-68
2023/05/03 09:29:47;;;;;;;2.40;1.20;;;10.90;99.90;;;;;;5004017;28;20610;-69
2023/05/03 09:32:13;;;;;;;4.75;0.90;;;10.90;99.90;;;;;;4994251;28;20033;-69
2023/05/03 09:34:39;;;;;;;4.88;0.80;;;11.00;99.90;;;;;;4995828;28;20041;-69
2023/05/03 09:37:05;;;;;;;4.03;0.80;;;11.00;99.90;;;;;;5005254;28;20059;-69
2023/05/03 09:39:31;;;;;;;1.75;0.60;;;11.00;99.90;;;;;;5003266;28;20286;-69
2023/05/03 09:41:57;;;;;;;3.08;1.02;;;11.00;99.90;;;;;;5017333;28;20132;-69
2023/05/03 09:44:42;;;;;;;2.10;0.88;;;11.00;99.90;;;;;;5000097;28;20514;-68
2023/05/03 09:47:09;;;;;;;3.28;0.80;;;11.00;99.90;;;;;;5008304;28;20055;-69
2023/05/03 09:49:37;;;;;;;3.28;0.90;;;11.00;99.90;;;;;;5003843;28;20048;-68
2023/05/03 09:52:05;;;;;;;2.92;0.80;;;11.10;99.90;;;;;;4993907;28;20049;-68
2023/05/03 09:54:31;;;;;;;0.70;0.60;;;11.10;99.90;;;;;;5007900;28;20419;-69
2023/05/03 09:56:56;;;;;;;2.33;0.75;;;11.10;99.90;;;;;;5003125;28;20045;-69
2023/05/03 09:59:22;;;;;;;1.17;0.75;;;11.20;99.90;;;;;;5000601;28;20049;-69
2023/05/03 10:01:51;;;;;;;5.53;1.42;;;11.20;99.90;;;;;;5000167;28;20124;-69
2023/05/03 10:04:19;;;;;;;2.00;0.70;;;11.20;99.90;;;;;;5000677;28;20184;-69
2023/05/03 10:06:47;;;;;;;1.55;0.70;;;11.30;99.90;;;;;;4984125;28;20133;-68
2023/05/03 10:09:20;;;;;;;2.33;0.77;;;11.20;99.90;;;;;;4982650;28;20438;-69
2023/05/03 10:11:50;;;;;;;2.25;0.80;;;11.30;99.90;;;;;;4993239;28;20415;-69
2023/05/03 10:14:16;;;;;;;1.38;0.60;;;11.30;99.90;;;;;;4998706;28;20098;-69
2023/05/03 10:16:48;;;;;;;2.40;0.90;;;11.30;99.90;;;;;;5011734;28;20479;-69
2023/05/03 10:19:20;;;;;;;2.83;0.75;;;11.40;99.90;;;;;;5010876;28;20166;-68
2023/05/03 10:22:01;;;;;;;2.10;0.70;;;11.40;99.90;;;;;;4999485;28;20056;-67
2023/05/03 10:24:27;;;;;;;3.35;1.10;;;11.50;99.90;;;;;;5026809;28;20184;-69
2023/05/03 10:26:55;;;;;;;5.45;0.82;;;11.50;99.90;;;;;;5022749;28;20114;-69
2023/05/03 10:29:47;;;;;;;3.45;1.65;;;11.50;99.90;;;;;;5023999;28;20062;-69
2023/05/03 10:32:33;;;;;;;2.13;0.90;;;11.50;99.90;;;;;;5015318;28;20050;-69
2023/05/03 10:35:08;;;;;;;7.05;1.30;;;11.50;99.90;;;;;;4981901;28;20068;-68
2023/05/03 10:37:37;;;;;;;2.92;0.90;;;11.60;99.90;;;;;;5001394;28;20231;-69
2023/05/03 10:40:08;;;;;;;1.23;0.77;;;11.60;99.90;;;;;;5015874;28;20037;-69
2023/05/03 10:42:34;;;;;;;3.90;0.90;;;11.60;99.90;;;;;;4980151;28;20041;-68
2023/05/03 10:45:02;;;;;;;3.63;1.13;;;11.60;99.90;;;;;;5019065;28;20280;-68
2023/05/03 10:47:28;;;;;;;1.60;0.70;;;11.70;99.90;;;;;;5000288;28;20042;-69
2023/05/03 10:50:16;;;;;;;2.80;1.00;;;11.70;99.90;;;;;;5017583;28;20435;-68
2023/05/03 10:52:41;;;;;;;2.30;1.02;;;11.80;99.90;;;;;;5013561;28;20303;-68
2023/05/03 10:55:17;;;;;;;2.23;1.00;;;11.90;99.90;;;;;;5017165;28;20160;-68
2023/05/03 10:57:45;;;;;;;1.80;0.77;;;12.00;99.90;;;;;;4999700;28;20304;-68
2023/05/03 11:00:35;;;;;;;4.05;0.90;;;12.10;99.90;;;;;;4997115;28;20094;-68
2023/05/03 11:03:25;;;;;;;2.70;0.70;;;12.10;99.90;;;;;;4994928;28;20129;-68
2023/05/03 11:05:52;;;;;;;3.97;0.70;;;12.20;99.90;;;;;;5010367;28;20569;-68
2023/05/03 11:08:19;;;;;;;1.50;0.98;;;12.30;99.90;;;;;;5024061;28;20045;-69
2023/05/03 11:10:47;;;;;;;1.25;0.77;;;12.30;99.90;;;;;;5002378;28;20525;-69
2023/05/03 11:13:13;;;;;;;5.07;1.00;;;12.30;99.90;;;;;;5022192;28;20461;-68
2023/05/03 11:15:40;;;;;;;2.45;0.80;;;12.30;99.90;;;;;;4990657;28;20050;-68
2023/05/03 11:18:06;;;;;;;;;;;12.30;99.90;;;;;;5018037;28;20046;-69
2023/05/03 11:20:32;;;;;;;3.65;1.52;;;12.40;99.90;;;;;;5002134;28;20479;-67
2023/05/03 11:22:58;;;;;;;4.22;1.45;;;12.50;99.90;;;;;;4994713;28;20071;-68
2023/05/03 11:25:23;;;;;;;4.18;1.27;;;12.50;99.90;;;;;;5001834;28;20124;-68
2023/05/03 11:27:49;;;;;;;3.53;0.80;;;12.50;99.90;;;;;;5003227;28;20044;-68
2023/05/03 11:30:15;;;;;;;4.07;1.07;;;12.60;99.90;;;;;;4989953;28;20045;-68
2023/05/03 11:32:42;;;;;;;3.63;0.98;;;12.70;99.90;;;;;;5001559;28;20423;-69
2023/05/03 11:35:09;;;;;;;1.95;0.75;;;12.80;99.90;;;;;;4999128;28;20060;-68
2023/05/03 11:37:35;;;;;;;3.58;1.00;;;12.80;99.90;;;;;;5005597;28;20049;-68
2023/05/03 11:40:00;;;;;;;5.72;1.52;;;12.90;99.90;;;;;;5010445;28;20072;-68
2023/05/03 11:42:27;;;;;;;2.03;0.95;;;12.80;99.90;;;;;;5003653;28;20080;-68
2023/05/03 11:44:53;;;;;;;1.88;0.90;;;12.90;99.90;;;;;;5012669;28;20038;-69
2023/05/03 11:47:20;;;;;;;4.35;1.10;;;13.00;99.90;;;;;;5008499;28;20094;-68
2023/05/03 11:49:53;;;;;;;2.75;0.70;;;13.10;99.90;;;;;;5013870;28;20049;-68
2023/05/03 11:52:23;;;;;;;1.48;0.90;;;13.20;99.90;;;;;;5009173;28;20045;-68
2023/05/03 11:54:50;;;;;;;5.45;1.35;;;13.20;99.90;;;;;;5007087;28;20380;-69
2023/05/03 11:57:15;;;;;;;6.35;1.23;;;13.30;99.90;;;;;;5006681;28;20154;-69
2023/05/03 11:59:43;;;;;;;1.70;0.80;;;13.40;99.90;;;;;;5005416;28;20053;-68
2023/05/03 12:02:11;;;;;;;3.60;1.10;;;13.60;99.20;;;;;;5003758;28;20334;-68
2023/05/03 12:04:42;;;;;;;1.80;0.80;;;13.60;98.90;;;;;;5005351;28;20455;-68
2023/05/03 12:07:10;;;;;;;2.08;1.00;;;13.60;99.10;;;;;;4988141;28;20088;-68
2023/05/03 12:09:36;;;;;;;3.13;1.23;;;13.70;98.80;;;;;;5006843;28;20267;-68
2023/05/03 12:12:02;;;;;;;3.13;0.85;;;13.80;98.70;;;;;;5006016;28;20034;-68
2023/05/03 12:14:28;;;;;;;5.28;1.05;;;14.00;98.40;;;;;;5004168;28;20037;-68
2023/05/03 12:16:55;;;;;;;3.67;1.13;;;14.10;98.00;;;;;;5015956;22;20025;-71
2023/05/03 12:19:28;;;;;;;4.32;1.00;;;14.20;97.90;;;;;;5011793;28;20090;-71
2023/05/03 12:21:54;;;;;;;1.27;0.98;;;14.40;97.30;;;;;;5022243;28;20041;-70
2023/05/03 12:24:22;;;;;;;4.50;1.27;;;14.40;97.00;;;;;;5017925;28;20048;-71
2023/05/03 12:26:50;;;;;;;6.78;1.10;;;14.20;96.10;;;;;;5017254;28;20045;-71
2023/05/03 12:29:16;;;;;;;4.10;1.20;;;14.10;96.10;;;;;;5026005;28;20133;-71
2023/05/03 12:31:43;;;;;;;1.45;0.90;;;14.00;96.10;;;;;;5034153;28;20036;-71
2023/05/03 12:34:09;;;;;;;2.47;0.90;;;14.00;96.30;;;;;;5018323;28;20056;-71
2023/05/03 12:36:35;;;;;;;2.13;1.00;;;14.20;96.50;;;;;;5020374;28;20426;-71
2023/05/03 12:39:01;;;;;;;2.90;1.00;;;14.30;96.30;;;;;;5015139;28;20237;-71
2023/05/03 12:41:30;;;;;;;2.47;1.00;;;14.50;96.20;;;;;;5022456;28;20033;-71
2023/05/03 12:43:57;;;;;;;3.45;1.05;;;14.70;95.90;;;;;;5010202;28;20061;-71
2023/05/03 12:46:23;;;;;;;2.20;1.08;;;14.80;95.30;;;;;;5020373;28;20518;-71
2023/05/03 12:48:52;;;;;;;3.28;1.10;;;14.90;95.10;;;;;;5017178;28;20041;-71
2023/05/03 12:51:18;;;;;;;2.70;1.10;;;15.00;94.90;;;;;;5020897;28;20043;-71
2023/05/03 12:53:45;;;;;;;5.85;1.27;;;15.20;94.70;;;;;;5020399;28;20041;-71
2023/05/03 12:56:11;;;;;;;2.90;1.02;;;15.30;94.40;;;;;;4995209;28;20053;-71
2023/05/03 12:58:36;;;;;;;3.42;1.20;;;15.30;94.00;;;;;;5017659;28;20052;-70
2023/05/03 13:01:02;;;;;;;1.63;0.90;;;15.40;94.40;;;;;;4997085;28;20056;-71
2023/05/03 13:03:28;;;;;;;2.07;1.03;;;15.60;94.00;;;;;;5013843;28;20041;-71
2023/05/03 13:05:54;;;;;;;3.28;0.98;;;15.70;94.00;;;;;;5037947;28;20318;-70
2023/05/03 13:08:20;;;;;;;1.70;1.30;;;15.80;93.70;;;;;;5036828;28;20110;-71
2023/05/03 13:10:46;;;;;;;4.88;1.55;;;15.70;93.20;;;;;;5016563;28;20052;-71
2023/05/03 13:13:12;;;;;;;2.63;1.00;;;15.60;92.90;;;;;;5021708;28;20134;-70